Time;durP1;ratioP1;P1;durP2;ratioP2;P2;SDS_P1;SDS_P2;PMS_P1;PMS_P2;Temp;Humidity;BMP_temperature;BMP_pressure;BME280_temperature;BME280_humidity;BME280_pressure;Samples;Min_cycle;Max_cycle;Signal;HPM_P1;HPM_P2
2023/10/27 00:00:09;;;;;;;4.15;2.40;;;10.60;93.60;;;;;;4934246;29;20036;-75
2023/10/27 00:02:38;;;;;;;4.68;2.13;;;10.60;93.60;;;;;;4933735;29;20036;-75
2023/10/27 00:05:05;;;;;;;5.05;2.50;;;10.60;93.60;;;;;;4878955;29;20642;-75
2023/10/27 00:07:30;;;;;;;4.82;2.33;;;10.60;93.60;;;;;;4877978;29;20580;-76
2023/10/27 00:09:56;;;;;;;3.83;1.80;;;10.60;93.60;;;;;;4893135;29;20108;-75
2023/10/27 00:12:22;;;;;;;4.05;2.05;;;10.60;93.60;;;;;;4894804;29;20124;-75
2023/10/27 00:14:47;;;;;;;5.55;2.63;;;10.60;93.60;;;;;;4879360;29;20120;-75
2023/10/27 00:17:13;;;;;;;4.78;2.45;;;10.60;93.60;;;;;;4894035;29;20053;-75
2023/10/27 00:19:39;;;;;;;4.38;2.30;;;10.60;93.60;;;;;;4877128;29;20049;-75
2023/10/27 00:22:04;;;;;;;4.03;2.20;;;10.60;93.60;;;;;;4893436;29;20064;-75
2023/10/27 00:24:30;;;;;;;4.40;2.42;;;10.60;93.60;;;;;;4893247;29;20045;-75
2023/10/27 00:26:56;;;;;;;4.32;2.22;;;10.60;93.60;;;;;;4895108;29;20063;-75
2023/10/27 00:29:21;;;;;;;3.70;2.03;;;10.70;93.60;;;;;;4893864;29;20040;-75
2023/10/27 00:31:47;;;;;;;4.40;2.30;;;10.60;93.50;;;;;;4894088;29;20063;-75
2023/10/27 00:34:13;;;;;;;4.80;2.45;;;10.70;93.60;;;;;;4879017;29;20085;-75
2023/10/27 00:36:39;;;;;;;4.82;2.30;;;10.60;93.60;;;;;;4926044;29;20056;-75
2023/10/27 00:39:07;;;;;;;4.70;2.40;;;10.70;93.60;;;;;;4917509;29;20055;-75
2023/10/27 00:41:33;;;;;;;5.57;2.67;;;10.70;93.60;;;;;;4933987;29;20055;-75
2023/10/27 00:43:59;;;;;;;4.60;2.17;;;10.70;93.60;;;;;;4916646;29;20481;-75
2023/10/27 00:46:25;;;;;;;4.20;2.30;;;10.70;93.60;;;;;;4918070;29;20051;-75
2023/10/27 00:48:51;;;;;;;4.20;2.03;;;10.80;93.60;;;;;;4934019;29;20044;-75
2023/10/27 00:51:17;;;;;;;4.72;2.38;;;10.70;93.60;;;;;;4932622;29;20039;-75
2023/10/27 00:53:43;;;;;;;4.82;2.22;;;10.70;93.60;;;;;;4897297;29;20149;-76
2023/10/27 00:56:09;;;;;;;4.25;2.30;;;10.80;93.60;;;;;;4912313;29;20079;-75
2023/10/27 00:58:35;;;;;;;4.85;2.10;;;10.80;93.60;;;;;;4928530;29;20072;-75
2023/10/27 01:01:02;;;;;;;5.57;2.60;;;10.80;93.60;;;;;;4913585;29;20052;-75
2023/10/27 01:03:29;;;;;;;5.30;2.40;;;10.80;93.60;;;;;;4915025;29;20478;-75
2023/10/27 01:05:55;;;;;;;4.70;2.33;;;10.80;93.60;;;;;;4913964;29;20612;-76
2023/10/27 01:08:21;;;;;;;6.78;2.53;;;10.90;93.60;;;;;;4932910;29;20032;-77
2023/10/27 01:10:47;;;;;;;5.13;2.30;;;10.80;93.60;;;;;;4934691;29;20073;-76
2023/10/27 01:13:16;;;;;;;4.38;2.25;;;10.80;93.60;;;;;;4900214;29;20115;-76
2023/10/27 01:15:42;;;;;;;5.00;2.28;;;10.80;93.50;;;;;;4877931;29;20095;-76
2023/10/27 01:18:08;;;;;;;4.32;2.25;;;10.80;93.50;;;;;;4880986;29;20064;-76
2023/10/27 01:20:34;;;;;;;4.13;2.13;;;10.80;93.50;;;;;;4881647;29;20049;-76
2023/10/27 01:23:02;;;;;;;4.45;2.40;;;10.90;93.60;;;;;;4894536;29;20554;-76
2023/10/27 01:25:28;;;;;;;5.18;2.20;;;10.90;93.60;;;;;;4893606;29;20595;-75
2023/10/27 01:27:54;;;;;;;5.72;2.70;;;10.80;93.60;;;;;;4848529;29;20082;-75
2023/10/27 01:30:20;;;;;;;5.40;2.47;;;10.90;93.60;;;;;;4864705;29;20037;-76
2023/10/27 01:32:46;;;;;;;4.55;2.38;;;10.90;93.60;;;;;;4880366;29;20098;-76
2023/10/27 01:35:12;;;;;;;4.60;2.20;;;11.00;93.60;;;;;;4895511;29;20120;-76
2023/10/27 01:37:38;;;;;;;4.03;2.28;;;10.90;93.60;;;;;;4880223;29;20086;-77
2023/10/27 01:40:05;;;;;;;5.18;2.17;;;10.90;93.60;;;;;;4897321;29;20041;-76
2023/10/27 01:42:35;;;;;;;4.50;2.30;;;10.90;93.60;;;;;;4880088;29;20057;-76
2023/10/27 01:45:04;;;;;;;4.47;2.37;;;10.90;93.60;;;;;;4877034;29;20058;-76
2023/10/27 01:47:31;;;;;;;4.50;2.30;;;11.00;93.60;;;;;;4858425;29;20379;-76
2023/10/27 01:49:57;;;;;;;4.50;2.17;;;11.00;93.60;;;;;;4879597;29;20053;-76
2023/10/27 01:52:23;;;;;;;3.50;1.98;;;10.90;93.50;;;;;;4880142;29;20060;-76
2023/10/27 01:54:50;;;;;;;6.40;2.63;;;10.90;93.50;;;;;;4856134;29;20053;-75
2023/10/27 01:57:17;;;;;;;4.65;2.08;;;11.00;93.50;;;;;;4840016;29;20141;-75
2023/10/27 01:59:49;;;;;;;4.93;2.33;;;11.00;93.60;;;;;;4859037;29;20070;-75
2023/10/27 02:02:15;;;;;;;5.93;2.60;;;10.90;93.60;;;;;;4860026;29;20046;-75
2023/10/27 02:04:42;;;;;;;4.93;2.67;;;11.00;93.50;;;;;;4843056;29;20070;-75
2023/10/27 02:07:08;;;;;;;4.38;2.50;;;11.10;93.60;;;;;;4844355;29;20057;-75
2023/10/27 02:09:34;;;;;;;4.70;2.50;;;11.00;93.60;;;;;;4858091;29;20085;-75
2023/10/27 02:12:00;;;;;;;4.80;2.20;;;11.00;93.50;;;;;;4854223;29;20063;-75
2023/10/27 02:14:26;;;;;;;4.18;2.20;;;11.10;93.60;;;;;;4854920;29;20079;-75
2023/10/27 02:16:52;;;;;;;4.45;2.40;;;11.10;93.60;;;;;;4852457;29;20050;-75
2023/10/27 02:19:19;;;;;;;5.20;2.30;;;11.00;93.60;;;;;;4842195;29;20054;-75
2023/10/27 02:21:45;;;;;;;4.32;2.20;;;11.00;93.60;;;;;;4843111;29;20066;-75
2023/10/27 02:24:12;;;;;;;4.07;2.25;;;11.00;93.60;;;;;;4867699;29;20518;-76
2023/10/27 02:26:38;;;;;;;3.97;2.20;;;11.00;93.60;;;;;;4872321;29;20037;-76
2023/10/27 02:29:04;;;;;;;3.97;1.95;;;11.00;93.60;;;;;;4903515;29;20060;-76
2023/10/27 02:31:29;;;;;;;5.78;2.47;;;11.00;93.60;;;;;;4906102;29;20049;-77
2023/10/27 02:33:55;;;;;;;5.10;2.70;;;11.00;93.60;;;;;;4921011;29;20076;-77
2023/10/27 02:36:21;;;;;;;5.43;2.78;;;11.10;93.60;;;;;;4919592;29;20100;-77
2023/10/27 02:38:46;;;;;;;5.28;2.33;;;11.10;93.60;;;;;;4917570;29;20580;-77
2023/10/27 02:41:12;;;;;;;4.80;2.30;;;11.10;93.60;;;;;;4896641;29;20048;-78
2023/10/27 02:43:38;;;;;;;4.75;2.20;;;11.00;93.60;;;;;;4912245;29;20160;-77
2023/10/27 02:46:05;;;;;;;3.40;1.80;;;11.00;93.60;;;;;;4894872;29;20534;-77
2023/10/27 02:48:31;;;;;;;4.40;2.17;;;10.90;93.60;;;;;;4908219;29;20161;-77
2023/10/27 02:50:57;;;;;;;4.80;2.50;;;11.00;93.60;;;;;;4902243;29;20088;-77
2023/10/27 02:53:23;;;;;;;5.45;2.50;;;11.10;93.70;;;;;;4903296;29;20040;-77
2023/10/27 02:55:50;;;;;;;4.50;2.15;;;11.10;93.70;;;;;;4925026;29;20051;-77
2023/10/27 02:58:16;;;;;;;4.18;2.00;;;11.10;93.70;;;;;;4909774;29;20051;-77
2023/10/27 03:00:42;;;;;;;5.13;2.42;;;11.10;93.70;;;;;;4900454;29;20044;-77
2023/10/27 03:03:09;;;;;;;4.97;2.20;;;11.10;93.70;;;;;;4903621;29;20088;-77
2023/10/27 03:05:36;;;;;;;5.15;2.50;;;11.00;93.60;;;;;;4920217;29;20043;-79
2023/10/27 03:08:02;;;;;;;3.97;2.08;;;11.10;93.70;;;;;;4924857;29;20177;-78
2023/10/27 03:10:28;;;;;;;5.63;2.45;;;11.10;93.70;;;;;;4924320;29;20026;-78
2023/10/27 03:12:54;;;;;;;5.20;2.35;;;11.10;93.70;;;;;;4940001;29;20673;-78
2023/10/27 03:15:21;;;;;;;3.85;1.88;;;11.00;93.60;;;;;;4907872;29;20414;-77
2023/10/27 03:17:48;;;;;;;4.95;2.33;;;11.10;93.70;;;;;;4920325;29;20039;-78
2023/10/27 03:20:14;;;;;;;4.28;2.17;;;11.00;93.60;;;;;;4920718;29;20052;-79
2023/10/27 03:22:41;;;;;;;4.10;1.92;;;11.10;93.70;;;;;;4907031;29;20145;-77
2023/10/27 03:25:07;;;;;;;5.15;2.40;;;11.10;93.70;;;;;;4934867;29;20044;-78
2023/10/27 03:27:32;;;;;;;6.50;2.65;;;11.20;93.70;;;;;;4922838;29;20055;-78
2023/10/27 03:29:58;;;;;;;7.18;2.50;;;11.10;93.70;;;;;;4920766;29;20020;-78
2023/10/27 03:32:24;;;;;;;4.90;2.30;;;11.10;93.70;;;;;;4920402;29;20063;-78
2023/10/27 03:34:50;;;;;;;5.63;2.50;;;11.20;93.70;;;;;;4920413;29;20073;-79
2023/10/27 03:37:16;;;;;;;4.20;2.28;;;11.10;93.70;;;;;;4886857;29;20072;-78
2023/10/27 03:39:43;;;;;;;6.45;2.85;;;11.10;93.70;;;;;;4901381;29;20127;-77
2023/10/27 03:42:09;;;;;;;5.03;2.67;;;11.10;93.70;;;;;;4887095;29;20155;-77
2023/10/27 03:44:35;;;;;;;4.78;2.60;;;11.10;93.70;;;;;;4901643;29;20529;-78
2023/10/27 03:47:01;;;;;;;5.40;2.65;;;11.10;93.70;;;;;;4885411;29;20443;-77
2023/10/27 03:49:28;;;;;;;3.75;2.08;;;11.00;93.70;;;;;;4927230;29;20048;-77
2023/10/27 03:51:53;;;;;;;5.28;2.42;;;11.10;93.70;;;;;;4921297;29;20056;-78
2023/10/27 03:54:19;;;;;;;5.30;2.40;;;11.10;93.70;;;;;;4920581;29;20052;-77
2023/10/27 03:56:45;;;;;;;5.22;2.40;;;11.10;93.70;;;;;;4920995;29;20074;-77
2023/10/27 03:59:11;;;;;;;4.55;2.22;;;11.10;93.70;;;;;;4902915;29;20183;-78
2023/10/27 04:01:38;;;;;;;3.72;2.00;;;11.10;93.70;;;;;;4918972;29;20040;-78
2023/10/27 04:04:04;;;;;;;4.32;1.92;;;11.10;93.70;;;;;;4920586;29;20071;-78
2023/10/27 04:06:30;;;;;;;4.25;1.95;;;11.10;93.70;;;;;;4936718;29;20040;-79
2023/10/27 04:08:55;;;;;;;5.00;2.03;;;11.10;93.70;;;;;;4938916;29;20075;-79
2023/10/27 04:11:21;;;;;;;4.85;2.20;;;11.10;93.70;;;;;;4922702;29;20032;-77
2023/10/27 04:13:47;;;;;;;4.10;2.05;;;11.10;93.70;;;;;;4933617;29;20041;-77
2023/10/27 04:16:12;;;;;;;4.93;2.20;;;11.20;93.80;;;;;;4900670;29;20046;-76
2023/10/27 04:18:38;;;;;;;3.40;1.75;;;11.10;93.70;;;;;;4924132;29;20052;-77
2023/10/27 04:21:04;;;;;;;3.90;1.70;;;11.10;93.70;;;;;;4923699;29;20064;-76
2023/10/27 04:23:31;;;;;;;4.30;2.10;;;11.10;93.80;;;;;;4906645;29;20032;-78
2023/10/27 04:25:57;;;;;;;4.78;2.10;;;11.00;93.70;;;;;;4903262;29;20048;-77
2023/10/27 04:28:23;;;;;;;5.07;2.13;;;11.10;93.80;;;;;;4938320;29;20030;-76
2023/10/27 04:30:48;;;;;;;3.40;1.73;;;11.10;93.70;;;;;;4922295;29;20032;-78
2023/10/27 04:33:15;;;;;;;5.50;2.38;;;11.10;93.80;;;;;;4905815;29;20028;-77
2023/10/27 04:35:43;;;;;;;4.07;1.98;;;11.10;93.80;;;;;;4939437;29;20055;-77
2023/10/27 04:38:08;;;;;;;3.88;2.03;;;11.10;93.80;;;;;;4921616;29;20108;-77
2023/10/27 04:40:34;;;;;;;4.18;2.05;;;11.10;93.80;;;;;;4938627;29;20043;-77
2023/10/27 04:43:00;;;;;;;3.50;2.00;;;11.10;93.80;;;;;;4939369;29;20032;-77
2023/10/27 04:45:26;;;;;;;4.35;2.20;;;11.10;93.80;;;;;;4939749;29;20056;-77
2023/10/27 04:47:54;;;;;;;3.53;1.70;;;11.10;93.80;;;;;;4922173;29;20056;-77
2023/10/27 04:50:21;;;;;;;2.85;1.60;;;11.00;93.70;;;;;;4936368;29;20064;-78
2023/10/27 04:52:47;;;;;;;3.30;1.60;;;11.10;93.80;;;;;;4939815;29;20048;-78
2023/10/27 04:55:13;;;;;;;4.10;1.80;;;11.10;93.80;;;;;;4936912;29;20050;-77
2023/10/27 04:57:48;;;;;;;3.67;1.90;;;11.10;93.80;;;;;;4915027;29;20490;-77
2023/10/27 05:00:14;;;;;;;2.85;1.70;;;11.10;93.80;;;;;;4881474;29;20104;-77
2023/10/27 05:02:40;;;;;;;3.65;1.63;;;11.10;93.80;;;;;;4868067;29;20062;-77
2023/10/27 05:05:09;;;;;;;3.63;1.70;;;11.10;93.80;;;;;;4853008;29;20128;-76
2023/10/27 05:07:37;;;;;;;3.03;1.60;;;11.10;93.80;;;;;;4877409;29;20408;-78
2023/10/27 05:10:02;;;;;;;2.28;1.50;;;11.10;93.80;;;;;;4853801;29;20094;-78
2023/10/27 05:12:28;;;;;;;2.25;1.50;;;11.10;93.80;;;;;;4867469;29;20041;-75
2023/10/27 05:14:54;;;;;;;2.53;1.50;;;11.10;93.80;;;;;;4848060;29;20057;-78
2023/10/27 05:17:20;;;;;;;1.85;1.20;;;11.10;93.80;;;;;;4861753;29;20141;-79
2023/10/27 05:19:48;;;;;;;2.67;1.50;;;11.10;93.80;;;;;;4860904;29;20048;-79
2023/10/27 05:22:14;;;;;;;2.55;1.50;;;11.10;93.80;;;;;;4860559;29;20190;-78
2023/10/27 05:24:39;;;;;;;2.08;1.40;;;11.10;93.80;;;;;;4876251;29;20045;-78
2023/10/27 05:27:06;;;;;;;2.10;1.33;;;11.10;93.80;;;;;;4875431;29;20071;-78
2023/10/27 05:29:31;;;;;;;2.22;1.33;;;11.00;93.80;;;;;;4844572;29;20104;-78
2023/10/27 05:31:57;;;;;;;2.67;1.40;;;11.10;93.80;;;;;;4909171;29;20410;-79
2023/10/27 05:34:23;;;;;;;2.15;1.50;;;11.10;93.80;;;;;;4882333;29;20448;-79
2023/10/27 05:36:48;;;;;;;2.33;1.17;;;11.10;93.80;;;;;;4898111;29;20040;-78
2023/10/27 05:39:16;;;;;;;1.75;1.10;;;11.10;93.80;;;;;;4915753;29;20123;-78
2023/10/27 05:41:46;;;;;;;1.77;1.30;;;11.10;93.80;;;;;;4886912;29;20111;-78
2023/10/27 05:44:13;;;;;;;2.03;1.20;;;11.10;93.90;;;;;;4899886;29;20044;-78
2023/10/27 05:46:39;;;;;;;1.83;1.00;;;11.10;93.80;;;;;;4898148;29;20138;-79
2023/10/27 05:49:05;;;;;;;1.77;1.17;;;11.10;93.90;;;;;;4915043;29;20506;-79
2023/10/27 05:51:33;;;;;;;0.75;0.70;;;11.10;93.90;;;;;;4898337;29;20175;-78
2023/10/27 05:53:59;;;;;;;2.03;1.30;;;11.10;93.90;;;;;;4898413;29;20139;-78
2023/10/27 05:56:27;;;;;;;2.42;1.40;;;11.00;94.10;;;;;;4898606;29;20168;-78
2023/10/27 05:58:53;;;;;;;2.42;1.38;;;11.20;93.80;;;;;;4883590;29;20032;-79
2023/10/27 06:01:19;;;;;;;2.08;1.13;;;11.10;93.80;;;;;;4898459;29;20036;-79
2023/10/27 06:03:45;;;;;;;1.52;1.00;;;11.10;93.80;;;;;;4902269;29;20042;-78
2023/10/27 06:06:11;;;;;;;1.88;1.05;;;11.10;93.80;;;;;;4929080;29;20040;-78
2023/10/27 06:08:42;;;;;;;2.08;1.23;;;11.10;93.80;;;;;;4903745;29;20455;-78
2023/10/27 06:11:08;;;;;;;2.72;1.35;;;11.10;93.80;;;;;;4921331;29;20567;-78
2023/10/27 06:13:34;;;;;;;1.92;1.17;;;11.10;94.10;;;;;;4904471;29;20051;-78
2023/10/27 06:15:59;;;;;;;1.88;1.10;;;11.00;93.80;;;;;;4938575;29;20056;-78
2023/10/27 06:18:25;;;;;;;2.22;1.20;;;11.10;93.90;;;;;;4906933;29;20103;-78
2023/10/27 06:20:51;;;;;;;2.85;1.40;;;11.00;93.80;;;;;;4922496;29;20104;-78
2023/10/27 06:23:17;;;;;;;1.30;0.98;;;11.00;93.80;;;;;;4905919;29;20033;-78
2023/10/27 06:25:43;;;;;;;2.13;1.30;;;11.10;93.90;;;;;;4922308;29;20651;-78
2023/10/27 06:28:08;;;;;;;1.80;0.95;;;11.10;93.90;;;;;;4924860;29;20124;-78
2023/10/27 06:30:34;;;;;;;1.95;1.00;;;11.00;93.80;;;;;;4909915;29;20094;-78
2023/10/27 06:33:00;;;;;;;1.70;1.13;;;11.00;93.80;;;;;;4925316;29;20043;-80
2023/10/27 06:35:25;;;;;;;2.13;1.10;;;11.10;93.90;;;;;;4909072;29;20119;-79
2023/10/27 06:37:51;;;;;;;1.08;0.90;;;11.00;93.80;;;;;;4941059;29;20016;-78
2023/10/27 06:40:17;;;;;;;1.92;1.10;;;11.10;93.90;;;;;;4909196;29;20064;-78
2023/10/27 06:42:43;;;;;;;1.88;1.02;;;11.10;93.90;;;;;;4908403;29;20021;-77
2023/10/27 06:45:09;;;;;;;1.23;0.80;;;11.00;93.80;;;;;;4938779;29;20044;-79
2023/10/27 08:12:30;;;;;;;1.90;1.15;;;11.20;93.80;;;;;;4732330;30;20072;-78
2023/10/27 08:15:06;;;;;;;1.73;1.00;;;11.20;93.80;;;;;;4712083;30;20187;-76
2023/10/27 08:17:37;;;;;;;1.77;1.10;;;11.20;93.70;;;;;;4698134;30;20103;-77
2023/10/27 08:38:33;;;;;;;1.60;0.93;;;11.20;93.70;;;;;;4660142;30;20058;-78
2023/10/27 08:45:09;;;;;;;2.05;1.08;;;11.20;93.70;;;;;;4624366;31;20202;-80
2023/10/27 08:48:10;;;;;;;1.77;1.08;;;11.20;93.70;;;;;;4595017;31;20539;-78
2023/10/27 09:13:24;;;;;;;1.00;0.73;;;11.30;93.80;;;;;;4593151;31;20075;-80
2023/10/27 09:31:13;;;;;;;1.42;1.00;;;11.30;93.70;;;;;;4498020;31;20066;-80
2023/10/27 09:34:54;;;;;;;1.27;0.82;;;11.30;93.70;;;;;;4526315;31;20058;-80
2023/10/27 09:37:52;;;;;;;0.98;0.77;;;11.30;93.70;;;;;;4575647;31;20528;-78
2023/10/27 09:41:19;;;;;;;0.98;0.75;;;11.40;93.70;;;;;;4595398;31;20131;-79
2023/10/27 09:54:05;;;;;;;1.02;0.85;;;11.40;93.70;;;;;;4599683;31;20060;-77
2023/10/27 11:27:25;;;;;;;0.93;0.80;;;12.10;93.70;;;;;;4840717;29;20075;-78
2023/10/27 11:40:35;;;;;;;0.60;0.57;;;12.20;93.60;;;;;;5640078;23;20080;-77
2023/10/27 11:43:14;;;;;;;0.82;0.73;;;12.20;93.60;;;;;;4862330;29;20082;-79
2023/10/27 11:50:19;;;;;;;0.60;0.50;;;12.20;93.60;;;;;;4765533;30;20135;-77
2023/10/27 11:56:17;;;;;;;0.60;0.57;;;12.30;93.60;;;;;;4693502;30;20061;-77
2023/10/27 12:09:55;;;;;;;0.47;0.45;;;12.20;93.60;;;;;;4644368;30;20062;-79
2023/10/27 12:12:55;;;;;;;0.52;0.40;;;12.10;93.70;;;;;;4631615;30;20134;-78
2023/10/27 12:15:33;;;;;;;0.60;0.50;;;12.10;93.90;;;;;;4630089;30;20070;-76
2023/10/27 12:22:16;;;;;;;0.55;0.50;;;12.20;93.70;;;;;;4577960;31;20095;-79
2023/10/27 12:28:46;;;;;;;0.50;0.47;;;12.30;93.70;;;;;;4548848;31;20064;-77
2023/10/27 12:31:32;;;;;;;0.40;0.40;;;12.30;93.70;;;;;;4554722;31;20052;-77
2023/10/27 12:33:58;;;;;;;0.55;0.40;;;12.20;93.70;;;;;;4545245;31;20548;-76
2023/10/27 12:36:24;;;;;;;0.50;0.50;;;12.40;93.70;;;;;;4556577;31;20048;-77
2023/10/27 12:49:45;;;;;;;0.60;0.60;;;12.30;93.60;;;;;;4611740;31;20052;-78
2023/10/27 12:52:58;;;;;;;0.40;0.40;;;12.30;93.60;;;;;;4612008;31;20052;-75
2023/10/27 13:02:03;;;;;;;0.50;0.50;;;12.30;93.70;;;;;;5451033;23;20112;-79
2023/10/27 13:05:14;;;;;;;0.82;0.50;;;12.30;93.70;;;;;;4880031;29;20085;-78
2023/10/27 14:18:21;;;;;;;0.20;0.20;;;12.20;93.70;;;;;;4580221;31;20072;-78
2023/10/27 14:21:43;;;;;;;0.30;0.30;;;12.20;93.70;;;;;;4550342;31;20070;-78
2023/10/27 14:59:41;;;;;;;0.43;0.43;;;12.30;93.80;;;;;;6013889;23;20000;-76
2023/10/27 15:02:12;;;;;;;0.47;0.47;;;12.20;93.70;;;;;;6009508;23;20016;-77
2023/10/27 15:04:38;;;;;;;0.52;0.52;;;12.30;93.70;;;;;;6034097;23;20015;-77
2023/10/27 15:07:04;;;;;;;1.17;0.60;;;12.30;93.70;;;;;;5968425;23;20014;-77
2023/10/27 15:09:32;;;;;;;0.70;0.65;;;12.40;93.70;;;;;;6014412;23;20050;-77
2023/10/27 15:12:05;;;;;;;0.80;0.77;;;12.30;93.70;;;;;;6030671;23;20007;-77
2023/10/27 15:14:31;;;;;;;0.65;0.60;;;12.30;94.00;;;;;;6013499;23;20004;-77
2023/10/27 15:16:57;;;;;;;0.70;0.70;;;12.30;93.70;;;;;;6041457;23;20015;-79
2023/10/27 15:19:24;;;;;;;0.60;0.60;;;12.30;93.70;;;;;;6016167;23;20035;-77
2023/10/27 15:21:50;;;;;;;0.70;0.63;;;12.20;93.70;;;;;;6016664;23;20002;-77
2023/10/27 15:24:18;;;;;;;1.85;0.80;;;12.20;93.70;;;;;;6035493;23;20012;-77
2023/10/27 15:26:52;;;;;;;0.65;0.65;;;12.20;93.70;;;;;;6035797;23;19999;-77
2023/10/27 15:29:27;;;;;;;0.93;0.82;;;12.30;93.80;;;;;;5971068;23;20013;-77
2023/10/27 15:31:58;;;;;;;1.33;1.00;;;12.20;93.80;;;;;;6049566;23;20087;-77
2023/10/27 15:34:26;;;;;;;0.85;0.80;;;12.20;93.80;;;;;;6156018;23;20572;-77
2023/10/27 15:40:02;;;;;;;0.90;0.77;;;12.20;93.80;;;;;;6135867;23;20014;-77
2023/10/27 15:42:28;;;;;;;1.35;1.00;;;12.00;93.70;;;;;;6081916;23;20015;-77
2023/10/27 15:48:06;;;;;;;0.98;0.82;;;12.10;93.80;;;;;;6063336;23;20043;-77
2023/10/27 15:54:03;;;;;;;1.02;0.85;;;12.00;93.80;;;;;;5934697;24;20033;-78
2023/10/27 15:57:14;;;;;;;1.33;0.70;;;12.00;93.80;;;;;;5885807;24;20032;-78
2023/10/27 16:06:32;;;;;;;0.80;0.80;;;12.00;93.80;;;;;;5877583;24;20029;-79
2023/10/27 16:09:07;;;;;;;0.90;0.77;;;12.00;93.70;;;;;;5911732;24;20355;-79
2023/10/27 16:11:39;;;;;;;0.85;0.70;;;12.00;93.80;;;;;;5924122;24;20028;-77
2023/10/27 16:14:07;;;;;;;1.63;0.90;;;12.00;93.80;;;;;;5950959;23;20013;-75
2023/10/27 16:16:35;;;;;;;1.00;0.93;;;12.00;93.80;;;;;;5979556;23;20076;-77
2023/10/27 16:19:01;;;;;;;1.50;0.93;;;12.00;93.80;;;;;;5973733;23;20020;-77
2023/10/27 16:21:58;;;;;;;1.33;1.00;;;11.90;93.80;;;;;;5969510;23;20048;-76
2023/10/27 16:27:11;;;;;;;1.35;1.00;;;11.90;93.80;;;;;;6286453;22;20050;-77
2023/10/27 16:29:38;;;;;;;1.48;1.05;;;11.80;93.70;;;;;;6276678;22;20085;-77
2023/10/27 16:32:18;;;;;;;1.00;0.90;;;11.90;93.80;;;;;;6269741;22;20020;-78
2023/10/27 16:34:44;;;;;;;1.10;1.00;;;11.90;93.80;;;;;;6235863;23;20024;-76
2023/10/27 16:37:11;;;;;;;1.00;0.90;;;11.90;93.80;;;;;;6227693;23;20016;-77
2023/10/27 16:39:37;;;;;;;0.85;0.73;;;12.00;93.80;;;;;;6234995;23;20001;-76
2023/10/27 16:42:07;;;;;;;1.73;1.30;;;11.90;93.80;;;;;;6239635;22;20005;-76
2023/10/27 16:44:35;;;;;;;1.63;1.25;;;12.00;93.80;;;;;;6239233;22;20020;-76
2023/10/27 16:47:26;;;;;;;1.92;1.40;;;12.00;93.80;;;;;;6234640;22;20017;-78
2023/10/27 16:50:18;;;;;;;1.30;0.93;;;11.90;93.80;;;;;;6157269;23;20088;-78
2023/10/27 16:53:12;;;;;;;2.80;1.58;;;11.90;93.80;;;;;;6107351;23;20020;-78
2023/10/27 16:55:37;;;;;;;1.75;1.30;;;11.90;93.80;;;;;;6110231;23;20102;-75
2023/10/27 16:58:06;;;;;;;2.97;1.38;;;11.90;93.80;;;;;;6073359;23;20011;-75
2023/10/27 17:00:32;;;;;;;2.53;1.50;;;11.90;93.80;;;;;;6087333;23;20018;-76
2023/10/27 17:02:58;;;;;;;3.03;2.00;;;11.90;93.80;;;;;;6040233;23;20058;-76
2023/10/27 17:05:23;;;;;;;2.25;1.60;;;11.90;93.80;;;;;;6073994;23;20011;-75
2023/10/27 17:07:49;;;;;;;2.35;1.63;;;11.90;93.80;;;;;;6090863;23;20037;-76
2023/10/27 17:10:15;;;;;;;2.95;1.60;;;11.90;93.80;;;;;;6116344;23;20007;-75
2023/10/27 17:12:41;;;;;;;2.05;1.48;;;11.90;93.80;;;;;;6093877;23;20006;-76
2023/10/27 17:15:07;;;;;;;2.30;1.40;;;11.90;93.80;;;;;;6114946;23;20023;-75
2023/10/27 17:17:32;;;;;;;2.88;1.83;;;11.90;93.80;;;;;;6115732;23;20006;-75
2023/10/27 17:19:59;;;;;;;2.53;1.65;;;11.90;93.80;;;;;;6099775;23;20018;-75
2023/10/27 17:22:25;;;;;;;2.05;1.33;;;11.90;93.80;;;;;;6143575;23;20018;-75
2023/10/27 17:24:53;;;;;;;2.10;1.40;;;11.90;93.80;;;;;;6143876;23;20037;-75
2023/10/27 17:27:20;;;;;;;1.75;1.35;;;11.80;93.80;;;;;;6191704;23;20008;-75
2023/10/27 17:29:47;;;;;;;1.17;1.00;;;11.80;93.80;;;;;;6284493;22;20015;-75
2023/10/27 17:32:12;;;;;;;1.40;1.13;;;11.80;93.90;;;;;;6296393;22;20000;-75
2023/10/27 17:34:38;;;;;;;1.10;1.00;;;11.80;93.90;;;;;;6297338;22;19996;-75
2023/10/27 17:37:04;;;;;;;2.05;1.40;;;11.70;93.90;;;;;;6296871;22;20003;-75
2023/10/27 17:39:31;;;;;;;1.95;1.50;;;11.80;93.90;;;;;;6297599;22;20007;-75
2023/10/27 17:41:57;;;;;;;1.88;1.33;;;11.80;93.90;;;;;;6271025;22;20014;-75
2023/10/27 17:44:23;;;;;;;2.10;1.42;;;11.90;93.90;;;;;;6270174;22;20010;-75
2023/10/27 17:46:49;;;;;;;1.58;1.35;;;11.80;93.90;;;;;;6298178;22;20008;-75
2023/10/27 17:49:16;;;;;;;3.08;1.50;;;11.80;93.90;;;;;;6271733;22;20062;-76
2023/10/27 17:51:44;;;;;;;2.40;1.40;;;11.70;93.90;;;;;;6297077;22;20011;-76
2023/10/27 17:54:12;;;;;;;1.45;1.25;;;11.70;93.90;;;;;;6297171;22;20051;-75
2023/10/27 17:56:41;;;;;;;2.42;1.50;;;11.90;93.90;;;;;;6245011;22;20007;-75
2023/10/27 17:59:09;;;;;;;1.77;1.30;;;11.70;93.80;;;;;;6297381;22;20025;-75
2023/10/27 18:01:35;;;;;;;2.33;1.50;;;11.70;93.80;;;;;;6295357;22;20000;-76
2023/10/27 18:04:01;;;;;;;1.48;1.27;;;11.70;93.90;;;;;;6271450;22;19999;-76
2023/10/27 18:06:29;;;;;;;2.03;1.27;;;11.70;93.90;;;;;;6268764;22;20004;-76
2023/10/27 18:08:55;;;;;;;2.00;1.50;;;11.70;93.90;;;;;;6246280;22;20818;-75
2023/10/27 18:11:23;;;;;;;2.33;1.50;;;11.80;93.90;;;;;;6270209;22;20026;-76
2023/10/27 18:13:49;;;;;;;1.77;1.30;;;11.70;93.90;;;;;;6299969;22;20027;-75
2023/10/27 18:16:15;;;;;;;1.65;1.15;;;11.60;93.90;;;;;;6298778;22;20015;-75
2023/10/27 18:18:41;;;;;;;1.90;1.10;;;11.60;94.20;;;;;;6269344;22;20075;-75
2023/10/27 18:21:10;;;;;;;1.30;1.20;;;11.60;93.90;;;;;;6294266;22;20439;-75
2023/10/27 18:23:37;;;;;;;1.65;1.20;;;11.50;93.90;;;;;;6293443;22;20026;-75
2023/10/27 18:26:12;;;;;;;2.00;1.40;;;11.40;93.90;;;;;;6269134;22;20000;-75
2023/10/27 18:28:39;;;;;;;1.55;1.20;;;11.40;94.00;;;;;;6296133;22;20019;-75
2023/10/27 18:31:05;;;;;;;2.00;1.38;;;11.40;94.00;;;;;;6296806;22;19996;-75
2023/10/27 18:33:30;;;;;;;2.30;1.27;;;11.30;94.00;;;;;;6267725;22;20034;-75
2023/10/27 18:35:56;;;;;;;2.15;1.40;;;11.40;94.10;;;;;;6294200;22;20003;-75
2023/10/27 18:38:22;;;;;;;2.47;1.42;;;11.30;94.10;;;;;;6266293;22;20008;-75
2023/10/27 18:40:47;;;;;;;1.63;1.27;;;11.30;94.10;;;;;;6264312;22;20332;-75
2023/10/27 18:43:13;;;;;;;3.75;1.65;;;11.30;94.10;;;;;;6265680;22;20019;-75
2023/10/27 18:45:39;;;;;;;2.20;1.42;;;11.10;94.10;;;;;;6264713;22;20000;-76
2023/10/27 18:48:07;;;;;;;1.65;1.13;;;11.10;94.10;;;;;;6236529;22;20011;-75
2023/10/27 18:50:33;;;;;;;1.90;1.20;;;11.10;94.10;;;;;;6261580;22;20026;-76
2023/10/27 18:52:59;;;;;;;2.17;1.30;;;11.00;94.10;;;;;;6264178;22;20328;-75
2023/10/27 18:55:24;;;;;;;2.85;1.60;;;11.00;94.10;;;;;;6293740;22;20003;-75
2023/10/27 18:57:51;;;;;;;2.13;1.60;;;11.00;94.10;;;;;;6241704;22;19996;-76
2023/10/27 19:00:22;;;;;;;1.83;1.27;;;10.90;94.20;;;;;;6268479;22;20022;-75
2023/10/27 19:02:49;;;;;;;2.70;1.40;;;10.90;94.20;;;;;;6267371;22;20003;-75
2023/10/27 19:05:15;;;;;;;1.67;1.30;;;10.80;94.20;;;;;;6233652;22;19996;-75
2023/10/27 19:07:41;;;;;;;2.38;1.45;;;10.80;94.20;;;;;;6239398;22;20004;-76
2023/10/27 19:10:11;;;;;;;1.95;1.30;;;10.70;94.20;;;;;;6288416;22;20486;-75
2023/10/27 19:12:40;;;;;;;2.28;1.40;;;10.70;94.20;;;;;;6235001;22;20004;-75
2023/10/27 19:15:08;;;;;;;1.55;1.20;;;10.60;94.20;;;;;;6261330;22;20031;-75
2023/10/27 19:17:35;;;;;;;2.28;1.40;;;10.60;94.20;;;;;;6237464;22;19999;-75
2023/10/27 19:20:02;;;;;;;1.77;1.10;;;10.60;94.20;;;;;;6256575;22;20053;-75
2023/10/27 19:22:28;;;;;;;2.58;1.30;;;10.50;94.20;;;;;;6237883;22;20000;-76
2023/10/27 19:24:55;;;;;;;1.55;1.10;;;10.50;94.20;;;;;;6292105;22;20031;-75
2023/10/27 19:27:21;;;;;;;2.15;1.30;;;10.50;94.50;;;;;;6254341;22;19999;-75
2023/10/27 19:29:46;;;;;;;1.20;0.90;;;10.50;94.20;;;;;;6278268;22;20043;-74
2023/10/27 19:32:12;;;;;;;2.05;1.10;;;10.40;94.20;;;;;;6251705;22;20008;-75
2023/10/27 19:34:38;;;;;;;1.85;1.20;;;10.50;94.30;;;;;;6281227;22;20008;-75
2023/10/27 19:37:04;;;;;;;1.30;0.98;;;10.50;94.30;;;;;;6251955;22;20014;-74
2023/10/27 19:39:31;;;;;;;1.05;0.95;;;10.50;94.20;;;;;;6225237;22;20000;-75
2023/10/27 19:41:58;;;;;;;1.20;0.95;;;10.50;94.10;;;;;;6251468;22;20046;-75
2023/10/27 19:44:24;;;;;;;1.20;0.98;;;10.50;94.20;;;;;;6257277;22;20007;-74
2023/10/27 19:46:50;;;;;;;1.00;0.80;;;10.40;94.10;;;;;;6228024;22;20015;-75
2023/10/27 19:49:16;;;;;;;2.13;1.13;;;10.40;94.10;;;;;;6279383;22;20324;-74
2023/10/27 19:51:42;;;;;;;3.20;1.00;;;10.40;94.10;;;;;;6279291;22;20027;-75
2023/10/27 19:54:08;;;;;;;0.88;0.85;;;10.40;94.10;;;;;;6226778;22;19996;-74
2023/10/27 19:56:35;;;;;;;1.05;0.80;;;10.40;94.10;;;;;;6279557;22;19999;-74
2023/10/27 19:59:01;;;;;;;1.25;0.75;;;10.40;94.10;;;;;;6253002;22;20300;-75
2023/10/27 20:01:27;;;;;;;1.30;0.90;;;10.40;94.20;;;;;;6227109;22;20011;-74